<?xml version="1.0" encoding="UTF-8" standalone="no" ?>
<gpx xmlns="http://www.topografix.com/GPX/1/1" xmlns:xsi="http://www.w3.org/2001/XMLSchema-instance" xsi:schemaLocation="http://www.topografix.com/GPX/1/1 http://www.topografix.com/GPX/1/1/gpx.xsd" version="1.1" creator="VisuGPX - https://www.visugpx.com">
  <metadata>
    <name>Condrieu3</name>
    <desc><![CDATA[Belle rando de 3 heures sans grande difficulté.]]></desc>
  </metadata>
  <trk>
    <name><![CDATA[--Condrieu-- OR-5192899:Condrieu3]]></name>
    <trkseg>
      <trkpt lat="45.45974" lon="4.78401">
        <ele>148</ele>
        <time>2015-12-09T17:39:49Z</time>
      </trkpt>
      <trkpt lat="45.45938" lon="4.78526">
        <ele>150</ele>
        <time>2015-12-09T17:41:49Z</time>
      </trkpt>
      <trkpt lat="45.45944" lon="4.78614">
        <ele>156</ele>
        <time>2015-12-09T17:43:49Z</time>
      </trkpt>
      <trkpt lat="45.4601" lon="4.78696">
        <ele>158</ele>
        <time>2015-12-09T17:45:49Z</time>
      </trkpt>
      <trkpt lat="45.4599" lon="4.78751">
        <ele>174</ele>
        <time>2015-12-09T17:47:49Z</time>
      </trkpt>
      <trkpt lat="45.45915" lon="4.78665">
        <ele>167</ele>
        <time>2015-12-09T17:49:49Z</time>
      </trkpt>
      <trkpt lat="45.45846" lon="4.78691">
        <ele>181</ele>
        <time>2015-12-09T17:51:49Z</time>
      </trkpt>
      <trkpt lat="45.45807" lon="4.78712">
        <ele>190</ele>
        <time>2015-12-09T17:53:49Z</time>
      </trkpt>
      <trkpt lat="45.45746" lon="4.78753">
        <ele>204</ele>
        <time>2015-12-09T17:55:49Z</time>
      </trkpt>
      <trkpt lat="45.45699" lon="4.78808">
        <ele>223</ele>
        <time>2015-12-09T17:57:49Z</time>
      </trkpt>
      <trkpt lat="45.45658" lon="4.78759">
        <ele>225</ele>
        <time>2015-12-09T17:59:49Z</time>
      </trkpt>
      <trkpt lat="45.45683" lon="4.78886">
        <ele>236</ele>
        <time>2015-12-09T18:01:49Z</time>
      </trkpt>
      <trkpt lat="45.4567" lon="4.78931">
        <ele>244</ele>
        <time>2015-12-09T18:03:49Z</time>
      </trkpt>
      <trkpt lat="45.45746" lon="4.78944">
        <ele>243</ele>
        <time>2015-12-09T18:05:49Z</time>
      </trkpt>
      <trkpt lat="45.45787" lon="4.78894">
        <ele>233</ele>
        <time>2015-12-09T18:07:49Z</time>
      </trkpt>
      <trkpt lat="45.45807" lon="4.78918">
        <ele>239</ele>
        <time>2015-12-09T18:09:49Z</time>
      </trkpt>
      <trkpt lat="45.45818" lon="4.78949">
        <ele>246</ele>
        <time>2015-12-09T18:11:49Z</time>
      </trkpt>
      <trkpt lat="45.45889" lon="4.78949">
        <ele>239</ele>
        <time>2015-12-09T18:13:49Z</time>
      </trkpt>
      <trkpt lat="45.45898" lon="4.7898">
        <ele>242</ele>
        <time>2015-12-09T18:15:49Z</time>
      </trkpt>
      <trkpt lat="45.45841" lon="4.79017">
        <ele>257</ele>
        <time>2015-12-09T18:17:49Z</time>
      </trkpt>
      <trkpt lat="45.45758" lon="4.79093">
        <ele>280</ele>
        <time>2015-12-09T18:19:49Z</time>
      </trkpt>
      <trkpt lat="45.45683" lon="4.79108">
        <ele>291</ele>
        <time>2015-12-09T18:21:49Z</time>
      </trkpt>
      <trkpt lat="45.45651" lon="4.79147">
        <ele>304</ele>
        <time>2015-12-09T18:23:49Z</time>
      </trkpt>
      <trkpt lat="45.4562" lon="4.79161">
        <ele>308</ele>
        <time>2015-12-09T18:25:49Z</time>
      </trkpt>
      <trkpt lat="45.45541" lon="4.79343">
        <ele>313</ele>
        <time>2015-12-09T18:27:49Z</time>
      </trkpt>
      <trkpt lat="45.45564" lon="4.79385">
        <ele>313</ele>
        <time>2015-12-09T18:29:49Z</time>
      </trkpt>
      <trkpt lat="45.45645" lon="4.79455">
        <ele>314</ele>
        <time>2015-12-09T18:31:49Z</time>
      </trkpt>
      <trkpt lat="45.4562" lon="4.79831">
        <ele>300</ele>
        <time>2015-12-09T18:33:49Z</time>
      </trkpt>
      <trkpt lat="45.45611" lon="4.79996">
        <ele>292</ele>
        <time>2015-12-09T18:35:49Z</time>
      </trkpt>
      <trkpt lat="45.45636" lon="4.80074">
        <ele>286</ele>
        <time>2015-12-09T18:37:49Z</time>
      </trkpt>
      <trkpt lat="45.45589" lon="4.80153">
        <ele>276</ele>
        <time>2015-12-09T18:39:49Z</time>
      </trkpt>
      <trkpt lat="45.4559" lon="4.802">
        <ele>272</ele>
        <time>2015-12-09T18:41:49Z</time>
      </trkpt>
      <trkpt lat="45.45545" lon="4.80262">
        <ele>265</ele>
        <time>2015-12-09T18:43:49Z</time>
      </trkpt>
      <trkpt lat="45.45591" lon="4.80306">
        <ele>263</ele>
        <time>2015-12-09T18:45:49Z</time>
      </trkpt>
      <trkpt lat="45.45616" lon="4.80401">
        <ele>262</ele>
        <time>2015-12-09T18:47:49Z</time>
      </trkpt>
      <trkpt lat="45.45656" lon="4.80469">
        <ele>262</ele>
        <time>2015-12-09T18:49:49Z</time>
      </trkpt>
      <trkpt lat="45.45711" lon="4.80497">
        <ele>265</ele>
        <time>2015-12-09T18:51:49Z</time>
      </trkpt>
      <trkpt lat="45.45845" lon="4.80632">
        <ele>265</ele>
        <time>2015-12-09T18:53:49Z</time>
      </trkpt>
      <trkpt lat="45.45895" lon="4.80758">
        <ele>267</ele>
        <time>2015-12-09T18:55:49Z</time>
      </trkpt>
      <trkpt lat="45.45992" lon="4.80867">
        <ele>269</ele>
        <time>2015-12-09T18:57:49Z</time>
      </trkpt>
      <trkpt lat="45.46015" lon="4.80948">
        <ele>266</ele>
        <time>2015-12-09T18:59:49Z</time>
      </trkpt>
      <trkpt lat="45.46022" lon="4.81045">
        <ele>260</ele>
        <time>2015-12-09T19:01:49Z</time>
      </trkpt>
      <trkpt lat="45.46057" lon="4.81118">
        <ele>260</ele>
        <time>2015-12-09T19:03:49Z</time>
      </trkpt>
      <trkpt lat="45.46104" lon="4.81181">
        <ele>263</ele>
        <time>2015-12-09T19:05:49Z</time>
      </trkpt>
      <trkpt lat="45.46116" lon="4.81246">
        <ele>264</ele>
        <time>2015-12-09T19:07:49Z</time>
      </trkpt>
      <trkpt lat="45.46141" lon="4.81379">
        <ele>259</ele>
        <time>2015-12-09T19:09:49Z</time>
      </trkpt>
      <trkpt lat="45.46261" lon="4.81371">
        <ele>266</ele>
        <time>2015-12-09T19:11:49Z</time>
      </trkpt>
      <trkpt lat="45.46337" lon="4.81361">
        <ele>274</ele>
        <time>2015-12-09T19:13:49Z</time>
      </trkpt>
      <trkpt lat="45.46405" lon="4.81353">
        <ele>279</ele>
        <time>2015-12-09T19:15:49Z</time>
      </trkpt>
      <trkpt lat="45.46414" lon="4.81408">
        <ele>275</ele>
        <time>2015-12-09T19:17:49Z</time>
      </trkpt>
      <trkpt lat="45.46428" lon="4.81489">
        <ele>268</ele>
        <time>2015-12-09T19:19:49Z</time>
      </trkpt>
      <trkpt lat="45.46484" lon="4.81523">
        <ele>268</ele>
        <time>2015-12-09T19:21:49Z</time>
      </trkpt>
      <trkpt lat="45.4652" lon="4.8158">
        <ele>269</ele>
        <time>2015-12-09T19:23:49Z</time>
      </trkpt>
      <trkpt lat="45.46594" lon="4.81567">
        <ele>273</ele>
        <time>2015-12-09T19:25:49Z</time>
      </trkpt>
      <trkpt lat="45.46646" lon="4.8158">
        <ele>276</ele>
        <time>2015-12-09T19:27:49Z</time>
      </trkpt>
      <trkpt lat="45.46734" lon="4.81619">
        <ele>281</ele>
        <time>2015-12-09T19:29:49Z</time>
      </trkpt>
      <trkpt lat="45.47014" lon="4.81674">
        <ele>296</ele>
        <time>2015-12-09T19:31:49Z</time>
      </trkpt>
      <trkpt lat="45.4714" lon="4.81684">
        <ele>296</ele>
        <time>2015-12-09T19:33:49Z</time>
      </trkpt>
      <trkpt lat="45.47151" lon="4.81473">
        <ele>303</ele>
        <time>2015-12-09T19:35:49Z</time>
      </trkpt>
      <trkpt lat="45.4728" lon="4.81376">
        <ele>312</ele>
        <time>2015-12-09T19:37:49Z</time>
      </trkpt>
      <trkpt lat="45.47285" lon="4.81238">
        <ele>314</ele>
        <time>2015-12-09T19:39:49Z</time>
      </trkpt>
      <trkpt lat="45.47354" lon="4.81238">
        <ele>314</ele>
        <time>2015-12-09T19:41:49Z</time>
      </trkpt>
      <trkpt lat="45.47364" lon="4.81126">
        <ele>314</ele>
        <time>2015-12-09T19:43:49Z</time>
      </trkpt>
      <trkpt lat="45.4744" lon="4.81199">
        <ele>314</ele>
        <time>2015-12-09T19:45:49Z</time>
      </trkpt>
      <trkpt lat="45.47496" lon="4.81251">
        <ele>315</ele>
        <time>2015-12-09T19:47:49Z</time>
      </trkpt>
      <trkpt lat="45.4753" lon="4.80998">
        <ele>308</ele>
        <time>2015-12-09T19:49:49Z</time>
      </trkpt>
      <trkpt lat="45.47508" lon="4.80917">
        <ele>308</ele>
        <time>2015-12-09T19:51:49Z</time>
      </trkpt>
      <trkpt lat="45.47497" lon="4.80849">
        <ele>309</ele>
        <time>2015-12-09T19:53:49Z</time>
      </trkpt>
      <trkpt lat="45.47511" lon="4.80646">
        <ele>310</ele>
        <time>2015-12-09T19:55:49Z</time>
      </trkpt>
      <trkpt lat="45.47034" lon="4.80454">
        <ele>313</ele>
        <time>2015-12-09T19:57:49Z</time>
      </trkpt>
      <trkpt lat="45.46955" lon="4.80755">
        <ele>313</ele>
        <time>2015-12-09T19:59:49Z</time>
      </trkpt>
      <trkpt lat="45.46915" lon="4.80708">
        <ele>313</ele>
        <time>2015-12-09T20:01:49Z</time>
      </trkpt>
      <trkpt lat="45.46826" lon="4.80622">
        <ele>315</ele>
        <time>2015-12-09T20:03:49Z</time>
      </trkpt>
      <trkpt lat="45.4675" lon="4.80541">
        <ele>314</ele>
        <time>2015-12-09T20:05:49Z</time>
      </trkpt>
      <trkpt lat="45.46662" lon="4.80322">
        <ele>315</ele>
        <time>2015-12-09T20:07:49Z</time>
      </trkpt>
      <trkpt lat="45.46556" lon="4.80173">
        <ele>317</ele>
        <time>2015-12-09T20:09:49Z</time>
      </trkpt>
      <trkpt lat="45.46596" lon="4.80035">
        <ele>317</ele>
        <time>2015-12-09T20:11:49Z</time>
      </trkpt>
      <trkpt lat="45.46719" lon="4.79894">
        <ele>308</ele>
        <time>2015-12-09T20:13:49Z</time>
      </trkpt>
      <trkpt lat="45.46822" lon="4.79881">
        <ele>296</ele>
        <time>2015-12-09T20:15:49Z</time>
      </trkpt>
      <trkpt lat="45.46863" lon="4.79878">
        <ele>288</ele>
        <time>2015-12-09T20:17:49Z</time>
      </trkpt>
      <trkpt lat="45.46894" lon="4.7987">
        <ele>281</ele>
        <time>2015-12-09T20:19:49Z</time>
      </trkpt>
      <trkpt lat="45.46905" lon="4.79826">
        <ele>284</ele>
        <time>2015-12-09T20:21:49Z</time>
      </trkpt>
      <trkpt lat="45.46957" lon="4.79803">
        <ele>273</ele>
        <time>2015-12-09T20:23:49Z</time>
      </trkpt>
      <trkpt lat="45.46973" lon="4.79761">
        <ele>275</ele>
        <time>2015-12-09T20:25:49Z</time>
      </trkpt>
      <trkpt lat="45.47012" lon="4.79753">
        <ele>264</ele>
        <time>2015-12-09T20:27:49Z</time>
      </trkpt>
      <trkpt lat="45.47034" lon="4.79706">
        <ele>266</ele>
        <time>2015-12-09T20:29:49Z</time>
      </trkpt>
      <trkpt lat="45.47126" lon="4.79617">
        <ele>257</ele>
        <time>2015-12-09T20:31:49Z</time>
      </trkpt>
      <trkpt lat="45.47206" lon="4.79581">
        <ele>233</ele>
        <time>2015-12-09T20:33:49Z</time>
      </trkpt>
      <trkpt lat="45.47183" lon="4.79469">
        <ele>226</ele>
        <time>2015-12-09T20:35:49Z</time>
      </trkpt>
      <trkpt lat="45.47214" lon="4.79521">
        <ele>223</ele>
        <time>2015-12-09T20:37:49Z</time>
      </trkpt>
      <trkpt lat="45.4732" lon="4.79646">
        <ele>204</ele>
        <time>2015-12-09T20:39:49Z</time>
      </trkpt>
      <trkpt lat="45.47368" lon="4.79685">
        <ele>194</ele>
        <time>2015-12-09T20:41:49Z</time>
      </trkpt>
      <trkpt lat="45.47314" lon="4.79583">
        <ele>197</ele>
        <time>2015-12-09T20:43:49Z</time>
      </trkpt>
      <trkpt lat="45.473" lon="4.79521">
        <ele>188</ele>
        <time>2015-12-09T20:45:49Z</time>
      </trkpt>
      <trkpt lat="45.47219" lon="4.79382">
        <ele>185</ele>
        <time>2015-12-09T20:47:49Z</time>
      </trkpt>
      <trkpt lat="45.47154" lon="4.79268">
        <ele>166</ele>
        <time>2015-12-09T20:49:49Z</time>
      </trkpt>
      <trkpt lat="45.471" lon="4.79223">
        <ele>166</ele>
        <time>2015-12-09T20:51:49Z</time>
      </trkpt>
      <trkpt lat="45.47011" lon="4.79184">
        <ele>169</ele>
        <time>2015-12-09T20:53:49Z</time>
      </trkpt>
      <trkpt lat="45.46935" lon="4.79147">
        <ele>168</ele>
        <time>2015-12-09T20:55:49Z</time>
      </trkpt>
      <trkpt lat="45.46953" lon="4.79103">
        <ele>156</ele>
        <time>2015-12-09T20:57:49Z</time>
      </trkpt>
      <trkpt lat="45.46883" lon="4.79069">
        <ele>152</ele>
        <time>2015-12-09T20:59:49Z</time>
      </trkpt>
      <trkpt lat="45.46921" lon="4.78918">
        <ele>147</ele>
        <time>2015-12-09T21:01:49Z</time>
      </trkpt>
      <trkpt lat="45.46799" lon="4.78842">
        <ele>147</ele>
        <time>2015-12-09T21:03:49Z</time>
      </trkpt>
      <trkpt lat="45.46707" lon="4.78696">
        <ele>146</ele>
        <time>2015-12-09T21:05:49Z</time>
      </trkpt>
      <trkpt lat="45.46685" lon="4.78631">
        <ele>146</ele>
        <time>2015-12-09T21:07:49Z</time>
      </trkpt>
      <trkpt lat="45.46624" lon="4.78612">
        <ele>146</ele>
        <time>2015-12-09T21:09:49Z</time>
      </trkpt>
      <trkpt lat="45.46662" lon="4.78276">
        <ele>150</ele>
        <time>2015-12-09T21:11:49Z</time>
      </trkpt>
      <trkpt lat="45.46612" lon="4.7825">
        <ele>151</ele>
        <time>2015-12-09T21:13:49Z</time>
      </trkpt>
      <trkpt lat="45.46551" lon="4.78208">
        <ele>149</ele>
        <time>2015-12-09T21:15:49Z</time>
      </trkpt>
      <trkpt lat="45.46402" lon="4.78257">
        <ele>148</ele>
        <time>2015-12-09T21:17:49Z</time>
      </trkpt>
      <trkpt lat="45.46258" lon="4.78317">
        <ele>150</ele>
        <time>2015-12-09T21:19:49Z</time>
      </trkpt>
      <trkpt lat="45.46186" lon="4.78317">
        <ele>148</ele>
        <time>2015-12-09T21:21:49Z</time>
      </trkpt>
      <trkpt lat="45.46112" lon="4.7833">
        <ele>146</ele>
        <time>2015-12-09T21:23:49Z</time>
      </trkpt>
      <trkpt lat="45.46019" lon="4.78362">
        <ele>147</ele>
        <time>2015-12-09T21:25:49Z</time>
      </trkpt>
      <trkpt lat="45.45986" lon="4.78351">
        <ele>148</ele>
        <time>2015-12-09T21:27:49Z</time>
      </trkpt>
      <trkpt lat="45.45974" lon="4.78401">
        <ele>148</ele>
        <time>2015-12-09T21:29:49Z</time>
      </trkpt>
    </trkseg>
  </trk>
</gpx>